sensor_id;sensor_type;location;lat;lon;timestamp;temperature;humidity
26703;DHT22;14316;51.074;3.704;2022-10-16T00:02:00;13.50;99.90
26703;DHT22;14316;51.074;3.704;2022-10-16T00:04:26;13.50;99.90
26703;DHT22;14316;51.074;3.704;2022-10-16T00:06:51;13.50;99.90
26703;DHT22;14316;51.074;3.704;2022-10-16T00:09:17;13.50;99.90
26703;DHT22;14316;51.074;3.704;2022-10-16T00:11:43;13.40;99.90
26703;DHT22;14316;51.074;3.704;2022-10-16T00:14:14;13.40;99.90
26703;DHT22;14316;51.074;3.704;2022-10-16T00:16:41;13.40;99.90
26703;DHT22;14316;51.074;3.704;2022-10-16T00:19:07;13.40;99.90
26703;DHT22;14316;51.074;3.704;2022-10-16T00:21:34;13.30;99.90
26703;DHT22;14316;51.074;3.704;2022-10-16T00:24:03;13.30;99.90
26703;DHT22;14316;51.074;3.704;2022-10-16T00:26:31;13.30;99.90
26703;DHT22;14316;51.074;3.704;2022-10-16T00:28:58;13.30;99.90
26703;DHT22;14316;51.074;3.704;2022-10-16T00:31:24;13.50;99.90
26703;DHT22;14316;51.074;3.704;2022-10-16T00:33:50;13.80;99.90
26703;DHT22;14316;51.074;3.704;2022-10-16T00:36:18;13.20;99.90
26703;DHT22;14316;51.074;3.704;2022-10-16T00:38:45;13.20;99.90
26703;DHT22;14316;51.074;3.704;2022-10-16T00:41:15;13.10;99.90
26703;DHT22;14316;51.074;3.704;2022-10-16T00:43:46;13.10;99.90
26703;DHT22;14316;51.074;3.704;2022-10-16T00:46:34;13.00;99.90
26703;DHT22;14316;51.074;3.704;2022-10-16T00:51:41;13.00;99.90
26703;DHT22;14316;51.074;3.704;2022-10-16T00:54:14;13.00;99.90
26703;DHT22;14316;51.074;3.704;2022-10-16T00:56:42;12.90;99.90
26703;DHT22;14316;51.074;3.704;2022-10-16T00:59:15;13.00;99.90
26703;DHT22;14316;51.074;3.704;2022-10-16T01:01:41;13.00;99.90
26703;DHT22;14316;51.074;3.704;2022-10-16T01:04:07;13.00;99.90
26703;DHT22;14316;51.074;3.704;2022-10-16T01:09:14;13.10;99.90
26703;DHT22;14316;51.074;3.704;2022-10-16T01:12:00;13.20;99.90
26703;DHT22;14316;51.074;3.704;2022-10-16T01:14:53;13.20;99.90
26703;DHT22;14316;51.074;3.704;2022-10-16T01:20:29;13.10;99.90
26703;DHT22;14316;51.074;3.704;2022-10-16T01:23:07;13.10;99.90
26703;DHT22;14316;51.074;3.704;2022-10-16T01:28:18;13.00;99.90
26703;DHT22;14316;51.074;3.704;2022-10-16T01:30:47;13.00;99.90
26703;DHT22;14316;51.074;3.704;2022-10-16T01:33:35;13.00;99.90
26703;DHT22;14316;51.074;3.704;2022-10-16T01:36:29;13.00;99.90
26703;DHT22;14316;51.074;3.704;2022-10-16T01:39:00;13.00;99.90
26703;DHT22;14316;51.074;3.704;2022-10-16T01:41:48;13.00;99.90
26703;DHT22;14316;51.074;3.704;2022-10-16T01:44:22;13.00;99.90
26703;DHT22;14316;51.074;3.704;2022-10-16T01:46:51;13.00;99.90
26703;DHT22;14316;51.074;3.704;2022-10-16T01:49:18;13.10;99.90
26703;DHT22;14316;51.074;3.704;2022-10-16T01:51:49;13.30;99.90
26703;DHT22;14316;51.074;3.704;2022-10-16T01:54:17;13.00;99.90
26703;DHT22;14316;51.074;3.704;2022-10-16T01:56:46;13.00;99.90
26703;DHT22;14316;51.074;3.704;2022-10-16T01:59:21;13.00;99.90
26703;DHT22;14316;51.074;3.704;2022-10-16T02:01:52;13.10;99.90
26703;DHT22;14316;51.074;3.704;2022-10-16T02:04:36;13.10;99.90
26703;DHT22;14316;51.074;3.704;2022-10-16T02:07:02;13.00;99.90
26703;DHT22;14316;51.074;3.704;2022-10-16T02:09:30;13.10;99.90
26703;DHT22;14316;51.074;3.704;2022-10-16T02:11:58;13.00;99.90
26703;DHT22;14316;51.074;3.704;2022-10-16T02:14:25;13.00;99.90
26703;DHT22;14316;51.074;3.704;2022-10-16T02:16:51;13.00;99.90
26703;DHT22;14316;51.074;3.704;2022-10-16T02:19:18;13.00;99.90
26703;DHT22;14316;51.074;3.704;2022-10-16T02:21:57;13.00;99.90
26703;DHT22;14316;51.074;3.704;2022-10-16T02:27:13;13.00;99.90
26703;DHT22;14316;51.074;3.704;2022-10-16T02:29:43;13.00;99.90
26703;DHT22;14316;51.074;3.704;2022-10-16T02:32:15;13.00;99.90
26703;DHT22;14316;51.074;3.704;2022-10-16T02:34:42;13.00;99.90
26703;DHT22;14316;51.074;3.704;2022-10-16T02:37:10;13.40;99.90
26703;DHT22;14316;51.074;3.704;2022-10-16T02:39:37;13.00;99.90
26703;DHT22;14316;51.074;3.704;2022-10-16T02:42:04;13.00;99.90
26703;DHT22;14316;51.074;3.704;2022-10-16T02:44:30;13.00;99.90
26703;DHT22;14316;51.074;3.704;2022-10-16T02:46:55;12.90;99.90
26703;DHT22;14316;51.074;3.704;2022-10-16T02:49:21;12.90;99.90
26703;DHT22;14316;51.074;3.704;2022-10-16T02:51:47;13.00;99.90
26703;DHT22;14316;51.074;3.704;2022-10-16T02:54:13;12.90;99.90
26703;DHT22;14316;51.074;3.704;2022-10-16T02:56:39;12.90;99.90
26703;DHT22;14316;51.074;3.704;2022-10-16T02:59:04;12.90;99.90
26703;DHT22;14316;51.074;3.704;2022-10-16T03:01:30;12.80;99.90
26703;DHT22;14316;51.074;3.704;2022-10-16T03:03:56;12.80;99.90
26703;DHT22;14316;51.074;3.704;2022-10-16T03:06:22;12.80;99.90
26703;DHT22;14316;51.074;3.704;2022-10-16T03:08:48;12.80;99.90
26703;DHT22;14316;51.074;3.704;2022-10-16T03:11:14;12.70;99.90
26703;DHT22;14316;51.074;3.704;2022-10-16T03:13:40;12.70;99.90
26703;DHT22;14316;51.074;3.704;2022-10-16T03:16:06;12.70;99.90
26703;DHT22;14316;51.074;3.704;2022-10-16T03:18:31;12.80;99.90
26703;DHT22;14316;51.074;3.704;2022-10-16T03:20:57;12.70;99.90
26703;DHT22;14316;51.074;3.704;2022-10-16T03:23:23;12.70;99.90
26703;DHT22;14316;51.074;3.704;2022-10-16T03:25:49;12.70;99.90
26703;DHT22;14316;51.074;3.704;2022-10-16T03:28:15;12.70;99.90
26703;DHT22;14316;51.074;3.704;2022-10-16T03:30:40;12.70;99.90
26703;DHT22;14316;51.074;3.704;2022-10-16T03:33:06;12.70;99.90
26703;DHT22;14316;51.074;3.704;2022-10-16T03:35:32;12.80;99.90
26703;DHT22;14316;51.074;3.704;2022-10-16T03:37:58;12.70;99.90
26703;DHT22;14316;51.074;3.704;2022-10-16T03:40:24;12.70;99.90
26703;DHT22;14316;51.074;3.704;2022-10-16T03:42:50;12.70;99.90
26703;DHT22;14316;51.074;3.704;2022-10-16T03:45:15;12.70;99.90
26703;DHT22;14316;51.074;3.704;2022-10-16T03:47:41;12.70;99.90
26703;DHT22;14316;51.074;3.704;2022-10-16T03:50:07;13.10;99.90
26703;DHT22;14316;51.074;3.704;2022-10-16T03:52:33;12.70;99.90
26703;DHT22;14316;51.074;3.704;2022-10-16T03:54:59;12.70;99.90
26703;DHT22;14316;51.074;3.704;2022-10-16T03:57:25;12.70;99.90
26703;DHT22;14316;51.074;3.704;2022-10-16T03:59:51;12.70;99.90
26703;DHT22;14316;51.074;3.704;2022-10-16T04:02:16;12.70;99.90
26703;DHT22;14316;51.074;3.704;2022-10-16T04:04:42;12.60;99.90
26703;DHT22;14316;51.074;3.704;2022-10-16T04:07:08;12.60;99.90
26703;DHT22;14316;51.074;3.704;2022-10-16T04:09:34;12.60;99.90
26703;DHT22;14316;51.074;3.704;2022-10-16T04:12:00;12.60;99.90
26703;DHT22;14316;51.074;3.704;2022-10-16T04:14:25;12.70;99.90
26703;DHT22;14316;51.074;3.704;2022-10-16T04:16:51;12.90;99.90
26703;DHT22;14316;51.074;3.704;2022-10-16T04:19:17;12.70;99.90
26703;DHT22;14316;51.074;3.704;2022-10-16T04:21:44;12.50;99.90
26703;DHT22;14316;51.074;3.704;2022-10-16T04:24:09;12.60;99.90
26703;DHT22;14316;51.074;3.704;2022-10-16T04:26:36;12.60;99.90
26703;DHT22;14316;51.074;3.704;2022-10-16T04:29:03;12.60;99.90
26703;DHT22;14316;51.074;3.704;2022-10-16T04:31:28;12.60;99.90
26703;DHT22;14316;51.074;3.704;2022-10-16T04:33:54;12.50;99.90
26703;DHT22;14316;51.074;3.704;2022-10-16T04:36:20;12.50;99.90
26703;DHT22;14316;51.074;3.704;2022-10-16T04:38:46;12.50;99.90
26703;DHT22;14316;51.074;3.704;2022-10-16T04:41:12;12.60;99.90
26703;DHT22;14316;51.074;3.704;2022-10-16T04:43:37;12.60;99.90
26703;DHT22;14316;51.074;3.704;2022-10-16T04:46:04;12.50;99.90
26703;DHT22;14316;51.074;3.704;2022-10-16T04:48:31;12.60;99.90
26703;DHT22;14316;51.074;3.704;2022-10-16T04:50:56;12.60;99.90
26703;DHT22;14316;51.074;3.704;2022-10-16T04:53:22;12.80;99.90
26703;DHT22;14316;51.074;3.704;2022-10-16T04:55:49;12.60;99.90
26703;DHT22;14316;51.074;3.704;2022-10-16T04:58:15;12.50;99.90
26703;DHT22;14316;51.074;3.704;2022-10-16T05:00:41;12.60;99.90
26703;DHT22;14316;51.074;3.704;2022-10-16T05:03:07;12.50;99.90
26703;DHT22;14316;51.074;3.704;2022-10-16T05:05:35;12.50;99.90
26703;DHT22;14316;51.074;3.704;2022-10-16T05:08:01;12.60;99.90
26703;DHT22;14316;51.074;3.704;2022-10-16T05:10:27;12.50;99.90
26703;DHT22;14316;51.074;3.704;2022-10-16T05:12:53;12.50;99.90
26703;DHT22;14316;51.074;3.704;2022-10-16T05:15:19;12.50;99.90
26703;DHT22;14316;51.074;3.704;2022-10-16T05:17:44;12.50;99.90
26703;DHT22;14316;51.074;3.704;2022-10-16T05:20:11;12.60;99.90
26703;DHT22;14316;51.074;3.704;2022-10-16T05:22:37;12.60;99.90
26703;DHT22;14316;51.074;3.704;2022-10-16T05:25:03;12.60;99.90
26703;DHT22;14316;51.074;3.704;2022-10-16T05:27:29;12.70;99.90
26703;DHT22;14316;51.074;3.704;2022-10-16T05:29:55;13.00;99.90
26703;DHT22;14316;51.074;3.704;2022-10-16T05:32:20;12.70;99.90
26703;DHT22;14316;51.074;3.704;2022-10-16T05:34:47;12.60;99.90
26703;DHT22;14316;51.074;3.704;2022-10-16T05:37:12;12.70;99.90
26703;DHT22;14316;51.074;3.704;2022-10-16T05:39:38;12.80;99.90
26703;DHT22;14316;51.074;3.704;2022-10-16T05:42:05;12.90;99.90
26703;DHT22;14316;51.074;3.704;2022-10-16T05:44:31;12.80;99.90
26703;DHT22;14316;51.074;3.704;2022-10-16T05:46:57;12.80;99.90
26703;DHT22;14316;51.074;3.704;2022-10-16T05:49:23;12.70;99.90
26703;DHT22;14316;51.074;3.704;2022-10-16T05:51:49;12.70;99.90
26703;DHT22;14316;51.074;3.704;2022-10-16T05:54:15;12.70;99.90
26703;DHT22;14316;51.074;3.704;2022-10-16T05:56:41;12.60;99.90
26703;DHT22;14316;51.074;3.704;2022-10-16T05:59:07;12.60;99.90
26703;DHT22;14316;51.074;3.704;2022-10-16T06:01:32;12.60;99.90
26703;DHT22;14316;51.074;3.704;2022-10-16T06:03:58;12.50;99.90
26703;DHT22;14316;51.074;3.704;2022-10-16T06:06:26;12.50;99.90
26703;DHT22;14316;51.074;3.704;2022-10-16T06:08:53;12.60;99.90
26703;DHT22;14316;51.074;3.704;2022-10-16T06:11:23;12.50;99.90
26703;DHT22;14316;51.074;3.704;2022-10-16T06:13:53;12.50;99.90
26703;DHT22;14316;51.074;3.704;2022-10-16T06:16:19;12.40;99.90
26703;DHT22;14316;51.074;3.704;2022-10-16T06:18:46;12.50;99.90
26703;DHT22;14316;51.074;3.704;2022-10-16T06:21:16;12.50;99.90
26703;DHT22;14316;51.074;3.704;2022-10-16T06:23:41;12.50;99.90
26703;DHT22;14316;51.074;3.704;2022-10-16T06:26:09;12.50;99.90
26703;DHT22;14316;51.074;3.704;2022-10-16T06:28:35;12.50;99.90
26703;DHT22;14316;51.074;3.704;2022-10-16T06:31:02;12.60;99.90
26703;DHT22;14316;51.074;3.704;2022-10-16T06:33:28;12.50;99.90
26703;DHT22;14316;51.074;3.704;2022-10-16T06:36:07;12.50;99.90
26703;DHT22;14316;51.074;3.704;2022-10-16T06:38:34;12.50;99.90
26703;DHT22;14316;51.074;3.704;2022-10-16T06:40:59;13.00;99.90
26703;DHT22;14316;51.074;3.704;2022-10-16T06:43:26;12.50;99.90
26703;DHT22;14316;51.074;3.704;2022-10-16T06:45:54;12.50;99.90
26703;DHT22;14316;51.074;3.704;2022-10-16T06:48:21;12.50;99.90
26703;DHT22;14316;51.074;3.704;2022-10-16T06:51:01;12.60;99.90
26703;DHT22;14316;51.074;3.704;2022-10-16T06:53:29;12.60;99.90
26703;DHT22;14316;51.074;3.704;2022-10-16T06:55:56;12.60;99.90
26703;DHT22;14316;51.074;3.704;2022-10-16T06:58:22;12.70;99.90
26703;DHT22;14316;51.074;3.704;2022-10-16T07:00:48;13.00;99.90
26703;DHT22;14316;51.074;3.704;2022-10-16T07:03:14;12.80;99.90
26703;DHT22;14316;51.074;3.704;2022-10-16T07:05:43;12.80;99.90
26703;DHT22;14316;51.074;3.704;2022-10-16T07:08:10;12.80;99.90
26703;DHT22;14316;51.074;3.704;2022-10-16T07:10:35;13.00;99.90
26703;DHT22;14316;51.074;3.704;2022-10-16T07:13:01;13.00;99.90
26703;DHT22;14316;51.074;3.704;2022-10-16T07:15:27;13.00;99.90
26703;DHT22;14316;51.074;3.704;2022-10-16T07:17:53;13.10;99.90
26703;DHT22;14316;51.074;3.704;2022-10-16T07:20:20;13.10;99.90
26703;DHT22;14316;51.074;3.704;2022-10-16T07:22:45;13.20;99.90
26703;DHT22;14316;51.074;3.704;2022-10-16T07:25:12;13.30;99.90
26703;DHT22;14316;51.074;3.704;2022-10-16T07:27:37;13.30;99.90
26703;DHT22;14316;51.074;3.704;2022-10-16T07:30:04;13.30;99.90
26703;DHT22;14316;51.074;3.704;2022-10-16T07:32:31;13.30;99.90
26703;DHT22;14316;51.074;3.704;2022-10-16T07:34:56;13.30;99.90
26703;DHT22;14316;51.074;3.704;2022-10-16T07:37:22;13.50;99.90
26703;DHT22;14316;51.074;3.704;2022-10-16T07:39:48;13.50;99.90
26703;DHT22;14316;51.074;3.704;2022-10-16T07:42:14;13.50;99.90
26703;DHT22;14316;51.074;3.704;2022-10-16T07:44:40;13.60;99.90
26703;DHT22;14316;51.074;3.704;2022-10-16T07:47:06;13.70;99.90
26703;DHT22;14316;51.074;3.704;2022-10-16T07:49:32;13.70;99.90
26703;DHT22;14316;51.074;3.704;2022-10-16T07:51:57;13.80;99.90
26703;DHT22;14316;51.074;3.704;2022-10-16T07:54:23;13.80;99.90
26703;DHT22;14316;51.074;3.704;2022-10-16T07:56:49;13.90;99.90
26703;DHT22;14316;51.074;3.704;2022-10-16T07:59:15;14.00;99.90
26703;DHT22;14316;51.074;3.704;2022-10-16T08:01:40;14.10;99.90
26703;DHT22;14316;51.074;3.704;2022-10-16T08:04:08;14.20;99.90
26703;DHT22;14316;51.074;3.704;2022-10-16T08:06:36;14.40;99.90
26703;DHT22;14316;51.074;3.704;2022-10-16T08:09:03;14.50;99.90
26703;DHT22;14316;51.074;3.704;2022-10-16T08:11:28;14.50;99.90
26703;DHT22;14316;51.074;3.704;2022-10-16T08:13:55;14.70;99.90
26703;DHT22;14316;51.074;3.704;2022-10-16T08:16:20;14.70;99.90
26703;DHT22;14316;51.074;3.704;2022-10-16T08:18:46;14.80;99.90
26703;DHT22;14316;51.074;3.704;2022-10-16T08:21:17;14.90;99.90
26703;DHT22;14316;51.074;3.704;2022-10-16T08:23:43;14.80;99.90
26703;DHT22;14316;51.074;3.704;2022-10-16T08:26:10;14.80;99.90
26703;DHT22;14316;51.074;3.704;2022-10-16T08:28:37;14.80;99.90
26703;DHT22;14316;51.074;3.704;2022-10-16T08:31:12;15.00;99.90
26703;DHT22;14316;51.074;3.704;2022-10-16T08:33:39;15.10;99.90
26703;DHT22;14316;51.074;3.704;2022-10-16T08:36:06;15.20;99.90
26703;DHT22;14316;51.074;3.704;2022-10-16T08:38:33;15.40;99.90
26703;DHT22;14316;51.074;3.704;2022-10-16T08:44:06;15.70;99.90
26703;DHT22;14316;51.074;3.704;2022-10-16T08:49:27;15.80;99.90
26703;DHT22;14316;51.074;3.704;2022-10-16T08:51:55;15.70;99.90
26703;DHT22;14316;51.074;3.704;2022-10-16T08:54:34;15.60;99.90
26703;DHT22;14316;51.074;3.704;2022-10-16T08:57:16;15.60;99.90
26703;DHT22;14316;51.074;3.704;2022-10-16T08:59:43;15.50;99.90
26703;DHT22;14316;51.074;3.704;2022-10-16T09:02:34;15.80;99.90
26703;DHT22;14316;51.074;3.704;2022-10-16T09:08:28;15.70;99.90
26703;DHT22;14316;51.074;3.704;2022-10-16T09:10:59;15.90;99.90
26703;DHT22;14316;51.074;3.704;2022-10-16T09:13:50;16.20;99.90
26703;DHT22;14316;51.074;3.704;2022-10-16T09:16:25;16.50;99.90
26703;DHT22;14316;51.074;3.704;2022-10-16T09:21:47;16.90;99.90
26703;DHT22;14316;51.074;3.704;2022-10-16T09:24:21;16.90;99.90
26703;DHT22;14316;51.074;3.704;2022-10-16T09:26:47;17.10;99.90
26703;DHT22;14316;51.074;3.704;2022-10-16T09:29:16;17.30;99.90
26703;DHT22;14316;51.074;3.704;2022-10-16T09:31:42;17.40;99.90
26703;DHT22;14316;51.074;3.704;2022-10-16T09:34:33;17.30;99.90
26703;DHT22;14316;51.074;3.704;2022-10-16T09:37:03;17.20;99.90
26703;DHT22;14316;51.074;3.704;2022-10-16T09:39:29;17.10;99.90
26703;DHT22;14316;51.074;3.704;2022-10-16T09:41:56;17.00;99.90
26703;DHT22;14316;51.074;3.704;2022-10-16T09:44:26;17.00;99.90
26703;DHT22;14316;51.074;3.704;2022-10-16T09:47:16;17.00;99.90
26703;DHT22;14316;51.074;3.704;2022-10-16T09:50:02;17.20;99.90
26703;DHT22;14316;51.074;3.704;2022-10-16T09:52:30;17.70;99.90
26703;DHT22;14316;51.074;3.704;2022-10-16T09:54:58;17.60;99.90
26703;DHT22;14316;51.074;3.704;2022-10-16T09:57:34;18.00;99.90
26703;DHT22;14316;51.074;3.704;2022-10-16T09:59:59;18.20;99.90
26703;DHT22;14316;51.074;3.704;2022-10-16T10:02:36;17.90;99.90
26703;DHT22;14316;51.074;3.704;2022-10-16T10:05:26;18.20;99.90
26703;DHT22;14316;51.074;3.704;2022-10-16T10:07:58;18.70;99.90
26703;DHT22;14316;51.074;3.704;2022-10-16T10:10:28;19.30;99.90
26703;DHT22;14316;51.074;3.704;2022-10-16T10:12:55;19.40;99.90
26703;DHT22;14316;51.074;3.704;2022-10-16T10:15:22;19.10;99.90
26703;DHT22;14316;51.074;3.704;2022-10-16T10:17:54;18.90;99.90
26703;DHT22;14316;51.074;3.704;2022-10-16T10:22:55;18.70;99.90
26703;DHT22;14316;51.074;3.704;2022-10-16T10:31:17;19.60;99.90
26703;DHT22;14316;51.074;3.704;2022-10-16T10:36:40;18.90;99.90
26703;DHT22;14316;51.074;3.704;2022-10-16T10:39:25;19.30;99.90
26703;DHT22;14316;51.074;3.704;2022-10-16T10:44:34;18.30;99.90
26703;DHT22;14316;51.074;3.704;2022-10-16T10:47:06;18.30;99.90
26703;DHT22;14316;51.074;3.704;2022-10-16T10:52:45;18.00;99.90
26703;DHT22;14316;51.074;3.704;2022-10-16T10:55:43;18.10;99.90
26703;DHT22;14316;51.074;3.704;2022-10-16T11:01:06;18.60;99.90
26703;DHT22;14316;51.074;3.704;2022-10-16T11:06:30;18.60;99.90
26703;DHT22;14316;51.074;3.704;2022-10-16T11:09:18;18.90;99.90
26703;DHT22;14316;51.074;3.704;2022-10-16T11:11:50;18.60;99.90
26703;DHT22;14316;51.074;3.704;2022-10-16T11:14:38;18.30;99.90
26703;DHT22;14316;51.074;3.704;2022-10-16T11:17:31;18.40;99.90
26703;DHT22;14316;51.074;3.704;2022-10-16T11:20:16;18.20;99.90
26703;DHT22;14316;51.074;3.704;2022-10-16T11:22:50;18.30;99.90
26703;DHT22;14316;51.074;3.704;2022-10-16T11:25:28;18.70;99.90
26703;DHT22;14316;51.074;3.704;2022-10-16T11:28:09;19.20;99.90
26703;DHT22;14316;51.074;3.704;2022-10-16T11:30:47;20.70;99.90
26703;DHT22;14316;51.074;3.704;2022-10-16T11:46:34;23.20;99.90
26703;DHT22;14316;51.074;3.704;2022-10-16T11:49:21;22.80;99.90
26703;DHT22;14316;51.074;3.704;2022-10-16T11:54:51;20.90;99.90
26703;DHT22;14316;51.074;3.704;2022-10-16T11:57:22;21.80;99.90
26703;DHT22;14316;51.074;3.704;2022-10-16T11:59:53;23.30;99.90
26703;DHT22;14316;51.074;3.704;2022-10-16T12:02:48;24.80;99.90
26703;DHT22;14316;51.074;3.704;2022-10-16T12:08:20;26.10;99.90
26703;DHT22;14316;51.074;3.704;2022-10-16T12:10:47;27.70;99.90
26703;DHT22;14316;51.074;3.704;2022-10-16T12:13:36;29.80;99.90
26703;DHT22;14316;51.074;3.704;2022-10-16T12:18:38;29.90;99.90
26703;DHT22;14316;51.074;3.704;2022-10-16T12:21:05;32.00;99.40
26703;DHT22;14316;51.074;3.704;2022-10-16T12:23:33;33.70;94.70
26703;DHT22;14316;51.074;3.704;2022-10-16T12:26:04;30.60;92.40
26703;DHT22;14316;51.074;3.704;2022-10-16T12:28:32;30.60;93.30
26703;DHT22;14316;51.074;3.704;2022-10-16T12:31:02;28.40;93.50
26703;DHT22;14316;51.074;3.704;2022-10-16T12:33:37;25.50;96.50
26703;DHT22;14316;51.074;3.704;2022-10-16T12:36:12;25.00;99.90
26703;DHT22;14316;51.074;3.704;2022-10-16T12:38:49;25.70;99.90
26703;DHT22;14316;51.074;3.704;2022-10-16T12:41:33;27.70;99.60
26703;DHT22;14316;51.074;3.704;2022-10-16T12:44:01;29.30;96.60
26703;DHT22;14316;51.074;3.704;2022-10-16T12:51:41;30.10;95.50
26703;DHT22;14316;51.074;3.704;2022-10-16T12:54:29;30.10;92.60
26703;DHT22;14316;51.074;3.704;2022-10-16T12:57:27;27.30;94.70
26703;DHT22;14316;51.074;3.704;2022-10-16T13:00:28;26.00;96.80
26703;DHT22;14316;51.074;3.704;2022-10-16T13:06:13;24.70;99.90
26703;DHT22;14316;51.074;3.704;2022-10-16T13:14:38;26.90;99.90
26703;DHT22;14316;51.074;3.704;2022-10-16T13:25:45;28.30;94.60
26703;DHT22;14316;51.074;3.704;2022-10-16T13:28:16;27.70;95.30
26703;DHT22;14316;51.074;3.704;2022-10-16T13:30:52;26.20;95.90
26703;DHT22;14316;51.074;3.704;2022-10-16T13:33:33;23.10;99.90
26703;DHT22;14316;51.074;3.704;2022-10-16T13:36:01;22.40;99.90
26703;DHT22;14316;51.074;3.704;2022-10-16T13:38:32;22.90;99.90
26703;DHT22;14316;51.074;3.704;2022-10-16T13:41:00;23.00;99.90
26703;DHT22;14316;51.074;3.704;2022-10-16T13:43:34;23.20;99.90
26703;DHT22;14316;51.074;3.704;2022-10-16T13:46:02;24.10;99.90
26703;DHT22;14316;51.074;3.704;2022-10-16T13:48:29;25.20;99.90
26703;DHT22;14316;51.074;3.704;2022-10-16T13:51:18;25.80;99.90
26703;DHT22;14316;51.074;3.704;2022-10-16T13:53:45;25.80;99.90
26703;DHT22;14316;51.074;3.704;2022-10-16T13:56:16;25.60;99.90
26703;DHT22;14316;51.074;3.704;2022-10-16T13:58:43;25.50;99.90
26703;DHT22;14316;51.074;3.704;2022-10-16T14:01:19;25.10;99.90
26703;DHT22;14316;51.074;3.704;2022-10-16T14:03:49;24.70;99.90
26703;DHT22;14316;51.074;3.704;2022-10-16T14:06:18;24.00;99.90
26703;DHT22;14316;51.074;3.704;2022-10-16T14:08:56;23.70;99.90
26703;DHT22;14316;51.074;3.704;2022-10-16T14:11:26;23.40;99.90
26703;DHT22;14316;51.074;3.704;2022-10-16T14:13:52;22.80;99.90
26703;DHT22;14316;51.074;3.704;2022-10-16T14:16:23;22.60;99.90
26703;DHT22;14316;51.074;3.704;2022-10-16T14:19:04;22.40;99.90
26703;DHT22;14316;51.074;3.704;2022-10-16T14:21:33;22.50;99.90
26703;DHT22;14316;51.074;3.704;2022-10-16T14:23:59;22.50;99.90
26703;DHT22;14316;51.074;3.704;2022-10-16T14:26:28;22.20;99.90
26703;DHT22;14316;51.074;3.704;2022-10-16T14:29:17;21.80;99.90
26703;DHT22;14316;51.074;3.704;2022-10-16T14:31:43;21.60;99.90
26703;DHT22;14316;51.074;3.704;2022-10-16T14:34:29;21.50;99.90
26703;DHT22;14316;51.074;3.704;2022-10-16T14:36:58;21.40;99.90
26703;DHT22;14316;51.074;3.704;2022-10-16T14:39:25;21.30;99.90
26703;DHT22;14316;51.074;3.704;2022-10-16T14:41:52;21.20;99.90
26703;DHT22;14316;51.074;3.704;2022-10-16T14:44:24;21.10;99.90
26703;DHT22;14316;51.074;3.704;2022-10-16T14:46:52;20.90;99.90
26703;DHT22;14316;51.074;3.704;2022-10-16T14:49:20;21.00;99.90
26703;DHT22;14316;51.074;3.704;2022-10-16T14:51:46;20.80;99.90
26703;DHT22;14316;51.074;3.704;2022-10-16T14:54:14;20.80;99.90
26703;DHT22;14316;51.074;3.704;2022-10-16T14:56:57;20.60;99.90
26703;DHT22;14316;51.074;3.704;2022-10-16T14:59:36;20.60;99.90
26703;DHT22;14316;51.074;3.704;2022-10-16T15:04:47;20.40;99.90
26703;DHT22;14316;51.074;3.704;2022-10-16T15:07:16;20.40;99.90
26703;DHT22;14316;51.074;3.704;2022-10-16T15:09:41;20.50;99.90
26703;DHT22;14316;51.074;3.704;2022-10-16T15:12:07;20.50;99.90
26703;DHT22;14316;51.074;3.704;2022-10-16T15:14:34;20.40;99.90
26703;DHT22;14316;51.074;3.704;2022-10-16T15:16:59;20.40;99.90
26703;DHT22;14316;51.074;3.704;2022-10-16T15:19:25;20.50;99.90
26703;DHT22;14316;51.074;3.704;2022-10-16T15:21:50;20.50;99.90
26703;DHT22;14316;51.074;3.704;2022-10-16T15:24:17;20.50;99.90
26703;DHT22;14316;51.074;3.704;2022-10-16T15:26:48;20.40;99.90
26703;DHT22;14316;51.074;3.704;2022-10-16T15:29:14;20.20;99.90
26703;DHT22;14316;51.074;3.704;2022-10-16T15:31:40;20.10;99.90
26703;DHT22;14316;51.074;3.704;2022-10-16T15:34:10;20.00;99.90
26703;DHT22;14316;51.074;3.704;2022-10-16T15:36:37;19.90;99.90
26703;DHT22;14316;51.074;3.704;2022-10-16T15:41:38;19.80;99.90
26703;DHT22;14316;51.074;3.704;2022-10-16T15:44:03;19.60;99.90
26703;DHT22;14316;51.074;3.704;2022-10-16T15:46:29;19.50;99.90
26703;DHT22;14316;51.074;3.704;2022-10-16T15:48:57;19.50;99.90
26703;DHT22;14316;51.074;3.704;2022-10-16T15:51:25;19.40;99.90
26703;DHT22;14316;51.074;3.704;2022-10-16T15:53:53;19.40;99.90
26703;DHT22;14316;51.074;3.704;2022-10-16T15:56:19;19.40;99.90
26703;DHT22;14316;51.074;3.704;2022-10-16T15:58:45;19.30;99.90
26703;DHT22;14316;51.074;3.704;2022-10-16T16:01:12;19.30;99.90
26703;DHT22;14316;51.074;3.704;2022-10-16T16:03:38;19.30;99.90
26703;DHT22;14316;51.074;3.704;2022-10-16T16:06:08;19.30;99.90
26703;DHT22;14316;51.074;3.704;2022-10-16T16:08:35;19.20;99.90
26703;DHT22;14316;51.074;3.704;2022-10-16T16:11:06;19.20;99.90
26703;DHT22;14316;51.074;3.704;2022-10-16T16:13:33;19.30;99.90
26703;DHT22;14316;51.074;3.704;2022-10-16T16:15:59;19.30;99.90
26703;DHT22;14316;51.074;3.704;2022-10-16T16:18:26;19.40;99.90
26703;DHT22;14316;51.074;3.704;2022-10-16T16:20:55;19.50;99.90
26703;DHT22;14316;51.074;3.704;2022-10-16T16:23:21;19.50;99.90
26703;DHT22;14316;51.074;3.704;2022-10-16T16:28:28;19.50;99.90
26703;DHT22;14316;51.074;3.704;2022-10-16T16:30:54;19.40;99.90
26703;DHT22;14316;51.074;3.704;2022-10-16T16:33:19;19.20;99.90
26703;DHT22;14316;51.074;3.704;2022-10-16T16:35:45;19.20;99.90
26703;DHT22;14316;51.074;3.704;2022-10-16T16:38:11;19.30;99.90
26703;DHT22;14316;51.074;3.704;2022-10-16T16:40:37;19.30;99.90
26703;DHT22;14316;51.074;3.704;2022-10-16T16:43:02;19.30;99.90
26703;DHT22;14316;51.074;3.704;2022-10-16T16:45:29;19.30;99.90
26703;DHT22;14316;51.074;3.704;2022-10-16T16:47:55;19.20;99.90
26703;DHT22;14316;51.074;3.704;2022-10-16T16:50:21;19.20;99.90
26703;DHT22;14316;51.074;3.704;2022-10-16T16:52:47;19.10;99.90
26703;DHT22;14316;51.074;3.704;2022-10-16T16:55:13;19.10;99.90
26703;DHT22;14316;51.074;3.704;2022-10-16T16:57:38;19.00;99.90
26703;DHT22;14316;51.074;3.704;2022-10-16T17:00:04;18.90;99.90
26703;DHT22;14316;51.074;3.704;2022-10-16T17:02:30;18.90;99.90
26703;DHT22;14316;51.074;3.704;2022-10-16T17:04:56;18.90;99.90
26703;DHT22;14316;51.074;3.704;2022-10-16T17:07:22;19.00;99.90
26703;DHT22;14316;51.074;3.704;2022-10-16T17:09:50;19.00;99.90
26703;DHT22;14316;51.074;3.704;2022-10-16T17:12:16;19.00;99.90
26703;DHT22;14316;51.074;3.704;2022-10-16T17:14:42;19.00;99.90
26703;DHT22;14316;51.074;3.704;2022-10-16T17:17:07;18.90;99.90
26703;DHT22;14316;51.074;3.704;2022-10-16T17:19:36;18.90;99.90
26703;DHT22;14316;51.074;3.704;2022-10-16T17:22:02;19.00;99.90
26703;DHT22;14316;51.074;3.704;2022-10-16T17:24:28;19.00;99.90
26703;DHT22;14316;51.074;3.704;2022-10-16T17:26:53;18.80;99.90